Last 48 Hours

Top of 15 - 9,047ft

15 Minute Data | America/Los_Angeles
as of 9/6/26 4:15 AM PDT
Date & Time Temp (°F) WindChill (°F) RH (%) Dew Pt (°F) Wet Bulb (°F) Wind Dir (°) Wind Spd (mph) Wind Gust (mph) Wind Gst Dir (°) Daily Min Temp (°F) Daily Max Temp (°F) Daily Max Wind (mph)
9/6/26 - 0415 44.8 38.4 31 16.1 34.8 SW | 235 13.6 31.2 WSW | 244 42.4 46.2 32.3
9/6/26 - 0400 44.6 37.9 32 16.4 34.8 WSW | 237 14.5 30.1 WSW | 245 42.4 45.6 32.3
9/6/26 - 0345 44.8 38.5 32 16.5 34.8 WSW | 237 13.0 31.1 SSW | 193 42.4 45.6 32.3
9/6/26 - 0330 44.7 38.4 33 17.4 35.0 SW | 233 13.2 26.3 WSW | 246 42.4 45.6 32.3
9/6/26 - 0315 44.9 39.6 32 16.8 35.0 SW | 225 10.5 23.2 WSW | 239 42.4 45.6 32.3
9/6/26 - 0300 44.3 38.6 37 19.7 35.3 SW | 222 10.9 26.0 SW | 235 42.4 44.8 32.3
9/6/26 - 0245 43.8 38.4 41 21.5 35.5 SW | 228 10.1 24.8 SSW | 195 42.4 44.2 32.3
9/6/26 - 0230 43.5 37.6 44 23.0 35.8 SW | 220 10.9 25.4 SW | 236 42.4 44.0 32.3
9/6/26 - 0215 43.4 37.3 45 23.6 35.9 SW | 214 11.6 32.3 S | 180 42.4 44.0 32.3
9/6/26 - 0200 43.2 37.2 48 24.7 36.1 SW | 216 11.0 26.8 SSW | 210 42.4 43.2 28.2
9/6/26 - 0145 43.0 36.9 50 25.7 36.3 SW | 215 11.3 24.8 SSW | 209 42.4 43.2 28.2
9/6/26 - 0130 42.8 37.3 52 26.2 36.3 SW | 228 9.4 22.2 S | 191 42.4 43.0 28.2
9/6/26 - 0115 42.8 36.6 52 26.5 36.4 SW | 224 11.4 28.2 SW | 214 42.4 43.0 28.2
9/6/26 - 0100 42.9 36.6 51 26.3 36.4 SW | 224 11.8 29.8 WSW | 238 39.7 55.4 36.4
9/6/26 - 0045 43.0 36.8 52 26.3 36.5 SW | 228 11.5 28.0 SW | 229 39.7 55.4 36.4
9/6/26 - 0030 42.9 36.5 53 27.0 36.6 SW | 231 11.9 31.6 W | 262 39.7 55.4 36.4
9/6/26 - 0015 43.0 35.8 53 27.0 36.7 SW | 226 14.9 30.4 SW | 214 39.7 55.4 36.4
9/6/26 - 0000 43.2 36.8 52 26.9 36.8 SW | 225 12.2 27.6 WSW | 237 39.7 55.4 36.4
9/5/26 - 2345 43.3 36.8 52 26.8 36.8 SW | 227 12.5 27.6 WSW | 248 39.7 55.4 36.4
9/5/26 - 2330 43.3 36.7 54 27.6 37.0 SW | 225 12.8 26.6 SW | 218 39.7 55.4 36.4
9/5/26 - 2315 43.2 37.3 55 28.3 37.2 SW | 220 10.9 27.9 S | 183 39.7 55.4 36.4
9/5/26 - 2300 43.3 37.8 57 29.1 37.5 SW | 219 9.8 34.5 SSW | 194 39.7 55.4 36.4
9/5/26 - 2245 43.4 38.5 58 29.6 37.8 SW | 220 8.5 27.5 SW | 236 39.7 55.4 36.4
9/5/26 - 2230 43.3 37.7 61 30.6 38.1 SW | 223 10.1 23.7 SW | 217 39.7 55.4 36.4
9/5/26 - 2215 43.3 36.6 62 31.3 38.4 SW | 226 13.3 36.4 S | 178 39.7 55.4 36.4
9/5/26 - 2200 43.4 36.5 63 31.8 38.6 SW | 224 13.8 29.7 SW | 226 39.7 55.4 34.2
9/5/26 - 2145 43.4 37.0 64 32.1 38.7 SW | 227 12.4 33.4 WSW | 239 39.7 55.4 34.2
9/5/26 - 2130 43.3 37.4 66 32.8 38.9 SW | 228 10.8 30.2 WSW | 243 39.7 55.4 34.2
9/5/26 - 2115 43.2 36.8 69 33.7 39.2 SW | 226 12.0 27.0 SSW | 211 39.7 55.4 34.2
9/5/26 - 2100 43.0 37.0 72 34.4 39.4 SW | 229 10.9 31.0 WSW | 253 39.7 55.4 34.2
9/5/26 - 2045 43.2 37.3 72 34.7 39.6 SW | 218 10.8 32.8 SW | 220 39.7 55.4 34.2
9/5/26 - 2030 43.4 37.4 70 34.3 39.5 SW | 223 11.2 29.7 SW | 227 39.7 55.4 34.2
9/5/26 - 2015 43.7 38.2 69 34.1 39.6 SW | 224 10.0 27.2 WSW | 250 39.7 55.4 34.2
9/5/26 - 2000 44.0 38.9 67 33.9 39.7 SW | 217 9.3 23.3 WSW | 247 39.7 55.4 34.2
9/5/26 - 1945 44.4 40.8 66 33.6 39.8 SW | 215 6.4 19.2 SW | 214 39.7 55.4 34.2
9/5/26 - 1930 44.7 39.7 65 33.6 40.0 SW | 224 9.5 26.2 WSW | 237 39.7 55.4 34.2
9/5/26 - 1915 45.1 40.5 64 33.6 40.2 SW | 220 8.7 22.3 WSW | 238 39.7 55.4 34.2
9/5/26 - 1900 45.5 41.0 63 33.7 40.5 SW | 222 8.7 21.3 SW | 215 39.7 55.4 34.2
9/5/26 - 1845 45.9 40.9 63 34.0 40.7 SW | 236 10.0 33.6 SW | 235 39.7 55.4 34.2
9/5/26 - 1830 46.0 40.7 63 34.1 40.9 SW | 225 11.2 28.8 SW | 229 39.7 55.4 34.2
9/5/26 - 1815 46.3 40.8 63 34.2 41.0 SW | 216 11.6 31.2 WSW | 246 39.7 55.4 34.2
9/5/26 - 1800 46.6 43.2 63 34.5 41.3 SW | 215 6.7 21.1 SW | 215 39.7 55.4 34.2
9/5/26 - 1745 46.9 42.6 62 34.5 41.5 SW | 226 8.9 22.5 WSW | 238 39.7 55.4 34.2
9/5/26 - 1730 47.1 42.9 61 34.5 41.6 SW | 227 8.7 24.4 SW | 217 39.7 55.4 34.2
9/5/26 - 1715 47.6 43.9 61 34.7 41.9 SW | 220 7.8 25.0 WSW | 240 39.7 55.4 34.2
9/5/26 - 1700 48.0 44.2 61 35.2 42.3 SW | 228 8.2 28.5 SSW | 201 39.7 55.4 34.2
9/5/26 - 1645 48.6 44.5 60 35.5 42.8 SW | 222 9.7 27.2 SSE | 154 39.7 55.4 34.2
9/5/26 - 1630 49.2 45.5 58 35.0 42.8 SW | 222 8.5 23.4 WSW | 251 39.7 55.4 34.2
9/5/26 - 1615 49.8 45.4 56 34.6 42.9 SW | 224 11.2 30.3 WSW | 250 39.7 55.4 34.2
9/5/26 - 1600 49.9 45.8 55 34.4 43.0 SW | 219 10.4 30.4 W | 265 39.7 55.4 34.2
9/5/26 - 1545 50.4 - 53 34.0 43.0 SW | 224 12.4 28.8 WSW | 244 39.7 55.4 34.2
9/5/26 - 1530 50.7 - 52 33.7 43.1 SW | 226 12.0 34.2 SSW | 211 39.7 55.4 34.2
9/5/26 - 1515 51.3 - 50 33.4 43.3 SW | 220 10.0 27.3 WSW | 242 39.7 55.4 33.8
9/5/26 - 1500 52.5 - 48 33.3 43.8 SW | 219 10.3 33.8 WSW | 249 39.7 55.4 33.8
9/5/26 - 1445 53.0 - 46 32.7 43.8 SSW | 208 9.6 28.1 SSW | 201 39.7 55.4 32.0
9/5/26 - 1430 53.9 - 44 32.8 44.2 SSW | 206 10.6 30.5 SW | 214 39.7 55.2 32.0
9/5/26 - 1415 54.0 - 42 31.4 43.8 SSW | 206 10.2 25.2 SW | 219 39.7 55.1 32.0
9/5/26 - 1400 54.1 - 42 31.4 43.8 SSW | 199 9.2 28.2 SSW | 195 39.7 55.1 32.0
9/5/26 - 1345 53.4 - 43 31.4 43.5 SSW | 199 10.7 26.5 SSW | 199 39.7 54.8 32.0
9/5/26 - 1330 53.2 - 43 31.5 43.4 SSW | 202 12.0 26.9 SE | 136 39.7 54.8 32.0
9/5/26 - 1315 52.8 - 46 32.5 43.6 SSW | 198 11.6 28.0 SSW | 194 39.7 54.8 32.0
9/5/26 - 1300 52.9 - 44 31.6 43.4 SSW | 202 7.7 21.8 SSW | 212 39.7 54.8 32.0
9/5/26 - 1245 52.5 - 43 30.8 42.8 SSW | 200 10.5 26.6 SSW | 195 39.7 54.8 32.0
9/5/26 - 1230 52.4 - 41 29.4 42.4 SSW | 202 12.6 32.0 SW | 214 39.7 54.0 32.0
9/5/26 - 1215 52.5 - 39 28.0 41.9 SSW | 205 9.7 26.4 S | 189 39.7 53.6 30.2
9/5/26 - 1200 52.5 - 36 26.5 41.5 SSW | 205 8.4 25.2 SSW | 202 39.7 53.6 30.2
9/5/26 - 1145 52.4 - 35 25.5 41.2 SSW | 202 10.3 21.2 SW | 233 39.7 53.6 30.2
9/5/26 - 1130 51.9 - 35 25.2 40.8 SSW | 196 9.6 24.6 SSW | 193 39.7 53.6 30.2
9/5/26 - 1115 52.5 - 31 22.6 40.4 SSW | 202 8.3 20.2 SW | 216 39.7 53.6 30.2
9/5/26 - 1100 51.9 - 32 22.7 40.1 SSW | 199 9.4 24.1 SW | 223 39.7 52.8 30.2
9/5/26 - 1045 50.7 - 34 23.4 39.7 SSW | 205 9.6 23.5 SSW | 212 39.7 51.5 30.2
9/5/26 - 1030 50.2 - 34 22.8 39.2 SSW | 210 8.6 22.5 SW | 223 39.7 51.1 30.2
9/5/26 - 1015 49.4 46.4 35 23.1 38.9 SSW | 204 7.2 18.9 SSW | 196 39.7 50.6 30.2
9/5/26 - 1000 48.4 45.3 36 22.7 38.3 SSW | 208 7.0 19.7 SW | 235 39.7 49.3 30.2
9/5/26 - 0945 47.8 45.0 36 22.1 37.9 SSW | 208 6.2 17.5 S | 182 39.7 48.9 30.2
9/5/26 - 0930 47.3 44.6 36 21.8 37.5 SW | 218 5.7 15.3 WSW | 244 39.7 48.5 30.2
9/5/26 - 0915 46.6 44.6 36 21.0 36.9 SSW | 201 4.4 12.5 S | 179 39.7 47.4 30.2
9/5/26 - 0900 46.2 - 36 20.6 36.6 SW | 222 2.5 11.1 WSW | 245 39.7 46.7 30.2
9/5/26 - 0845 45.6 - 36 20.4 36.2 SSE | 156 2.3 9.7 SSE | 151 39.7 46.1 30.2
9/5/26 - 0830 44.8 42.0 38 20.6 35.8 SW | 215 5.1 18.4 WSW | 250 39.7 45.9 30.2
9/5/26 - 0815 43.7 39.0 40 21.3 35.4 SW | 236 8.1 19.9 WSW | 249 39.7 44.8 30.2
9/5/26 - 0800 43.3 36.8 42 21.7 35.3 WSW | 240 12.9 30.2 WSW | 246 39.7 43.7 30.2
9/5/26 - 0745 43.2 38.3 42 21.7 35.2 SW | 233 8.3 21.5 SW | 221 39.7 43.4 25.7
9/5/26 - 0730 42.8 37.5 44 22.2 35.2 SW | 232 9.3 25.7 W | 259 39.7 43.4 25.7
9/5/26 - 0715 42.6 38.4 44 22.2 35.0 SW | 234 6.8 14.4 WSW | 243 39.7 43.4 25.4
9/5/26 - 0700 42.3 37.0 45 22.4 34.9 SW | 236 8.8 21.0 WSW | 248 39.7 43.4 25.4
9/5/26 - 0645 41.8 37.5 47 23.0 34.8 WSW | 237 6.6 16.5 SW | 228 39.7 43.4 25.4
9/5/26 - 0630 41.6 36.0 48 23.4 34.8 WSW | 238 9.1 20.9 SW | 233 39.7 43.4 25.4
9/5/26 - 0615 41.5 35.9 49 23.8 34.9 SW | 233 9.2 21.5 WSW | 243 39.7 43.4 25.4
9/5/26 - 0600 41.7 37.2 49 24.0 35.0 SW | 234 7.1 15.8 WSW | 243 39.7 43.4 25.4
9/5/26 - 0545 41.8 36.5 49 24.2 35.1 SW | 236 8.5 20.3 WSW | 255 39.7 43.4 25.4
9/5/26 - 0530 42.1 36.8 48 23.9 35.2 WSW | 241 8.7 20.6 WSW | 243 39.7 43.4 25.4
9/5/26 - 0515 42.4 36.6 48 23.9 35.4 SW | 236 9.9 21.4 WSW | 249 39.7 43.4 25.4
9/5/26 - 0500 42.2 36.4 50 24.7 35.6 SW | 235 10.0 21.5 WSW | 250 39.7 43.4 25.4
9/5/26 - 0445 42.2 36.6 51 25.3 35.7 WSW | 242 9.5 25.4 SW | 233 39.7 43.4 25.4
9/5/26 - 0430 42.5 37.4 49 24.7 35.7 SW | 235 8.6 20.6 SW | 222 39.7 43.4 22.6
9/5/26 - 0415 42.7 37.6 49 24.8 35.8 SW | 234 8.6 19.5 SW | 223 39.7 43.4 22.6
9/5/26 - 0400 43.1 38.2 47 24.1 35.8 WSW | 237 8.3 19.5 WSW | 246 39.7 43.4 22.6
9/5/26 - 0345 41.9 36.9 55 26.7 36.0 WSW | 239 8.1 20.6 WSW | 248 39.7 43.3 22.6
9/5/26 - 0330 42.1 37.0 55 27.0 36.2 SW | 232 8.3 19.4 WSW | 256 39.7 43.3 22.6
9/5/26 - 0315 42.4 37.7 53 26.6 36.2 SW | 234 7.6 20.7 WSW | 250 39.7 43.3 22.6
9/5/26 - 0300 42.5 36.8 53 26.4 36.2 WSW | 240 9.9 20.6 WSW | 244 39.7 43.3 22.6
9/5/26 - 0245 41.7 36.4 59 28.4 36.4 WSW | 237 8.5 21.0 WSW | 242 39.7 42.2 22.6
9/5/26 - 0230 41.1 35.2 63 29.7 36.5 WSW | 239 9.6 22.6 WSW | 244 39.7 41.4 22.6
9/5/26 - 0215 40.8 35.0 67 30.7 36.8 SW | 235 9.3 21.9 SW | 220 39.7 41.4 22.1
9/5/26 - 0200 40.7 34.1 69 31.2 36.8 WSW | 242 11.0 21.5 WSW | 242 39.7 41.0 22.1
9/5/26 - 0145 40.3 35.4 74 32.8 37.2 SW | 234 7.2 18.2 SW | 214 39.7 40.9 22.1
9/5/26 - 0130 40.3 34.4 77 33.5 37.5 SW | 232 9.2 17.0 WSW | 251 39.7 40.5 22.1
9/5/26 - 0115 40.0 33.3 83 35.2 38.1 SW | 232 10.9 22.1 SSW | 204 39.7 40.3 22.1
9/5/26 - 0100 40.1 34.1 83 35.4 38.2 SW | 231 9.3 24.5 WSW | 245 36.6 51.5 39.4
9/5/26 - 0045 40.1 33.6 84 35.6 38.3 WSW | 238 10.5 20.2 SW | 226 36.6 51.5 39.4
9/5/26 - 0030 40.2 34.2 84 35.7 38.4 SW | 226 9.0 21.5 SSW | 210 36.6 51.5 39.4
9/5/26 - 0015 40.2 34.6 84 35.8 38.4 SW | 221 8.7 27.4 WSW | 243 36.6 51.5 39.4
9/5/26 - 0000 40.4 34.0 84 35.8 38.6 SW | 228 10.4 26.1 WSW | 256 36.6 51.5 39.4
9/4/26 - 2345 40.5 34.2 82 35.5 38.4 SW | 227 10.1 23.0 WSW | 238 36.6 51.5 39.4
9/4/26 - 2330 40.4 33.9 84 35.9 38.6 SW | 230 10.6 24.9 SW | 221 36.6 51.5 39.4
9/4/26 - 2315 40.5 33.9 83 35.7 38.5 SW | 230 10.8 24.3 WSW | 245 36.6 51.5 39.4
9/4/26 - 2300 40.6 35.2 80 35.0 38.3 SW | 217 8.3 22.8 SW | 226 36.6 51.5 39.4
9/4/26 - 2245 40.8 36.0 78 34.4 38.2 SW | 221 7.3 18.8 SW | 228 36.6 51.5 39.4
9/4/26 - 2230 40.8 35.7 79 34.7 38.3 SW | 222 7.8 16.8 WSW | 242 36.6 51.5 39.4
9/4/26 - 2215 41.0 35.5 78 34.7 38.4 SW | 219 8.8 25.1 WSW | 251 36.6 51.5 39.4
9/4/26 - 2200 40.6 34.1 84 36.1 38.8 SW | 223 10.7 26.8 WSW | 254 36.6 51.5 39.4
9/4/26 - 2145 40.8 34.5 84 36.2 39.0 SW | 215 10.4 27.8 WSW | 242 36.6 51.5 39.4
9/4/26 - 2130 41.1 35.1 84 36.6 39.3 SSW | 211 9.7 24.4 SW | 235 36.6 51.5 39.4
9/4/26 - 2115 41.1 34.4 86 37.2 39.6 SW | 227 11.8 24.9 WSW | 251 36.6 51.5 39.4
9/4/26 - 2100 41.4 35.1 85 37.3 39.7 SW | 222 10.4 25.1 SW | 232 36.6 51.5 39.4
9/4/26 - 2045 41.5 35.3 86 37.7 39.9 SW | 228 10.4 25.5 SW | 223 36.6 51.5 39.4
9/4/26 - 2030 41.7 35.4 85 37.6 40.0 SW | 228 10.8 22.9 WSW | 243 36.6 51.5 39.4
9/4/26 - 2015 41.8 36.1 86 37.8 40.2 SW | 216 9.3 27.4 SSW | 194 36.6 51.5 39.4
9/4/26 - 2000 41.9 36.2 86 38.0 40.3 SW | 222 9.4 23.1 SW | 233 36.6 51.5 39.4
9/4/26 - 1945 42.0 35.5 87 38.3 40.5 SW | 225 11.5 24.6 SSW | 203 36.6 51.5 39.4
9/4/26 - 1930 42.3 36.9 86 38.3 40.7 SW | 220 9.1 23.2 SW | 232 36.6 51.5 39.4
9/4/26 - 1915 42.5 36.0 86 38.5 40.9 SW | 226 11.8 30.8 SW | 215 36.6 51.5 39.4
9/4/26 - 1900 42.9 37.1 84 38.6 41.2 SW | 224 10.4 24.5 SSW | 205 36.6 51.5 39.4
9/4/26 - 1845 43.3 38.2 83 38.5 41.3 SW | 215 8.7 27.5 SSW | 208 36.6 51.5 39.4
9/4/26 - 1830 43.5 38.6 82 38.3 41.3 SW | 227 8.6 19.8 WSW | 246 36.6 51.5 39.4
9/4/26 - 1815 43.7 38.1 80 38.0 41.3 SW | 225 10.4 25.9 WSW | 246 36.6 51.5 39.4
9/4/26 - 1800 44.1 39.3 79 37.9 41.5 SW | 216 8.6 23.7 SW | 228 36.6 51.5 39.4
9/4/26 - 1745 44.5 40.9 77 37.7 41.6 SSW | 206 6.3 16.6 SSW | 206 36.6 51.5 39.4
9/4/26 - 1730 44.7 39.6 76 37.7 41.7 SW | 224 9.6 28.6 WSW | 245 36.6 51.5 39.4
9/4/26 - 1715 45.0 40.4 75 37.6 41.8 SW | 225 8.6 25.0 WSW | 255 36.6 51.5 39.4
9/4/26 - 1700 45.7 39.9 73 37.6 42.2 SW | 225 12.3 29.0 WSW | 249 36.6 51.5 39.4
9/4/26 - 1645 46.1 41.2 71 37.4 42.3 SW | 222 10.0 24.9 SSW | 213 36.6 51.5 39.4
9/4/26 - 1630 46.7 41.3 69 37.2 42.5 SW | 227 11.8 28.9 WSW | 246 36.6 51.5 39.4
9/4/26 - 1615 46.7 42.1 69 37.0 42.4 SW | 224 9.6 31.8 SW | 224 36.6 51.5 39.4
9/4/26 - 1600 47.1 42.0 68 37.2 42.7 SW | 225 11.1 26.8 WSW | 248 36.6 51.5 39.4
9/4/26 - 1545 47.7 42.8 66 36.8 42.8 SW | 227 11.0 26.7 SW | 219 36.6 51.5 39.4
9/4/26 - 1530 47.6 42.6 65 36.3 42.6 SW | 219 11.5 28.4 WSW | 247 36.6 51.5 39.4
9/4/26 - 1515 48.2 44.0 63 36.2 42.8 SW | 223 9.2 29.2 S | 187 36.6 51.5 39.4
9/4/26 - 1500 48.7 44.4 61 35.7 42.9 SW | 222 10.0 24.2 WSW | 246 36.6 51.5 39.4
9/4/26 - 1445 48.0 43.5 60 34.9 42.2 SW | 217 10.0 29.2 W | 262 36.6 51.5 39.4
9/4/26 - 1430 48.0 43.6 60 34.8 42.2 SSW | 203 10.0 35.5 SSW | 200 36.6 51.5 39.4
9/4/26 - 1415 48.9 44.4 58 34.9 42.7 SSW | 210 10.9 33.0 S | 191 36.6 51.5 39.4
9/4/26 - 1400 48.6 44.0 57 34.1 42.2 SSW | 211 11.2 29.2 WSW | 237 36.6 51.5 39.4
9/4/26 - 1345 48.9 43.8 56 34.1 42.3 SSW | 202 12.6 28.3 WSW | 247 36.6 51.5 39.4
9/4/26 - 1330 48.7 44.0 56 33.9 42.1 SSW | 209 11.3 36.3 S | 183 36.6 50.8 39.4
9/4/26 - 1315 48.9 44.4 56 34.0 42.3 SSW | 208 11.1 25.0 S | 189 36.6 50.8 39.4
9/4/26 - 1300 47.6 42.4 60 34.2 41.7 SW | 214 12.0 33.5 WSW | 239 36.6 49.8 39.4
9/4/26 - 1245 47.4 42.5 60 34.1 41.6 SW | 225 11.1 27.2 SSW | 198 36.6 49.8 39.4
9/4/26 - 1230 47.9 43.0 58 33.9 41.8 SW | 219 11.4 29.2 SW | 226 36.6 49.8 39.4
9/4/26 - 1215 47.7 43.0 57 33.2 41.4 SW | 223 10.5 30.4 SSW | 194 36.6 48.7 39.4
9/4/26 - 1200 47.2 42.7 56 32.4 40.8 SSW | 206 9.6 24.9 W | 268 36.6 48.7 39.4
9/4/26 - 1145 47.1 43.2 56 32.4 40.8 SSW | 206 8.0 25.4 S | 191 36.6 48.7 39.4
9/4/26 - 1130 47.7 43.3 54 32.0 40.9 SSW | 198 9.6 30.6 SSW | 194 36.6 48.7 39.4
9/4/26 - 1115 47.3 42.9 54 31.6 40.6 SW | 214 9.5 34.0 SW | 221 36.6 48.7 39.4
9/4/26 - 1100 46.9 42.6 56 32.0 40.5 SW | 219 9.2 30.6 WSW | 258 36.6 48.6 39.4
9/4/26 - 1045 45.6 40.0 59 32.1 39.9 SW | 226 11.6 27.5 WSW | 244 36.6 47.6 39.4
9/4/26 - 1030 46.0 40.5 57 31.7 40.0 SW | 214 11.8 28.4 S | 187 36.6 47.6 39.4
9/4/26 - 1015 46.4 40.8 55 31.2 40.0 SW | 217 12.4 32.7 W | 259 36.6 47.6 39.4
9/4/26 - 1000 46.0 40.5 56 31.3 39.8 SW | 216 11.7 28.3 WSW | 245 36.6 47.2 39.4
9/4/26 - 0945 45.0 39.4 59 31.6 39.4 SSW | 203 11.3 29.0 SSW | 203 36.6 46.1 39.4
9/4/26 - 0930 43.6 37.2 64 32.4 38.9 SSW | 209 12.3 30.8 SW | 220 36.6 44.6 39.4
9/4/26 - 0915 42.2 35.8 68 32.5 38.2 SSW | 208 11.4 29.0 SW | 217 36.6 43.3 39.4
9/4/26 - 0900 40.9 34.0 73 32.9 37.6 SSW | 211 12.1 30.5 WSW | 237 36.6 41.8 39.4
9/4/26 - 0845 39.9 32.4 76 32.9 37.0 SW | 223 13.0 27.2 WSW | 241 36.6 40.5 39.4
9/4/26 - 0830 39.6 31.6 77 33.0 36.9 SW | 227 14.3 32.7 SW | 219 36.6 40.3 39.4
9/4/26 - 0815 39.1 30.6 79 33.2 36.7 SW | 231 15.2 35.7 WSW | 246 36.6 39.8 39.4
9/4/26 - 0800 38.5 30.1 81 33.4 36.4 SW | 227 14.7 35.8 WSW | 251 36.6 39.3 39.4
9/4/26 - 0745 38.2 29.4 83 33.4 36.2 SW | 228 15.2 35.7 WSW | 239 36.6 39.3 39.4
9/4/26 - 0730 38.0 29.3 83 33.2 36.1 SW | 225 14.9 36.4 WSW | 247 36.6 39.3 39.4
9/4/26 - 0715 38.0 29.2 83 33.2 36.0 SW | 226 15.1 38.4 WSW | 244 36.6 39.3 39.4
9/4/26 - 0700 37.8 29.0 84 33.4 36.0 SW | 230 14.8 31.8 WSW | 254 36.6 39.3 39.4
9/4/26 - 0645 37.0 27.7 89 34.0 35.8 SW | 233 15.9 33.1 WSW | 246 36.6 39.3 39.4
9/4/26 - 0630 37.0 27.6 88 33.8 35.7 SW | 231 16.2 38.6 SW | 229 36.8 39.3 39.4
9/4/26 - 0615 36.9 27.4 88 33.7 35.6 SW | 232 16.6 35.7 WSW | 244 36.8 39.3 39.4
9/4/26 - 0600 37.1 28.3 87 33.5 35.7 SW | 226 14.4 38.5 SSW | 204 37.0 39.3 39.4
9/4/26 - 0545 37.5 28.4 85 33.4 35.8 SW | 229 15.4 32.0 SW | 235 37.2 39.3 39.4
9/4/26 - 0530 37.6 29.0 84 33.3 35.9 SW | 231 14.3 29.2 WSW | 246 37.5 39.3 39.4
9/4/26 - 0515 37.6 29.6 84 33.2 35.8 SW | 222 12.7 31.8 WSW | 253 37.5 39.3 39.4
9/4/26 - 0500 37.7 29.1 84 33.3 35.9 SW | 218 14.2 36.2 WSW | 237 37.5 39.3 39.4
9/4/26 - 0445 37.8 29.6 84 33.6 36.1 SW | 220 13.3 32.8 SW | 224 37.7 39.3 39.4
9/4/26 - 0430 38.3 30.6 84 33.8 36.5 SW | 226 12.1 26.2 WSW | 255 37.8 39.3 39.4
9/4/26 - 0415 38.2 30.7 85 34.1 36.5 SW | 224 11.7 29.2 SW | 235 37.8 39.3 39.4
Max 54.1 46.4 89 38.6 44.2 - 16.6 38.6 - 42.4 55.4 39.4
Avg 44.5 37.7 61 30.9 38.9 - 10.4 26.3 - - - -
Min 36.9 27.4 31 16.1 34.8 - 2.3 9.7 - 36.6 39.3 22.1